createdAt,value
2019-03-28T00:00:46.339Z,82.29
2019-03-28T00:01:46.268Z,82.50
2019-03-28T00:02:46.248Z,82.60
2019-03-28T00:03:46.254Z,82.29
2019-03-28T00:04:46.219Z,82.50
2019-03-28T00:05:46.245Z,82.19
2019-03-28T00:06:46.217Z,82.09
2019-03-28T00:07:46.213Z,81.99
2019-03-28T00:08:46.231Z,81.88
2019-03-28T00:09:46.165Z,82.19
2019-03-28T00:10:46.184Z,81.88
2019-03-28T00:11:46.153Z,81.99
2019-03-28T00:12:46.155Z,81.99
2019-03-28T00:13:46.141Z,82.09
2019-03-28T00:14:46.124Z,82.09
2019-03-28T00:15:46.136Z,82.09
2019-03-28T00:16:46.090Z,82.09
2019-03-28T00:17:46.080Z,82.44
2019-03-28T00:18:46.083Z,82.65
2019-03-28T00:19:46.070Z,82.65
2019-03-28T00:20:46.093Z,82.86
2019-03-28T00:21:46.034Z,83.06
2019-03-28T00:22:46.030Z,83.06
2019-03-28T00:23:46.039Z,83.51
2019-03-28T00:24:46.024Z,83.62
2019-03-28T00:25:46.022Z,83.72
2019-03-28T00:26:46.007Z,83.62
2019-03-28T00:27:46.320Z,83.93
2019-03-28T00:28:45.966Z,84.23
2019-03-28T00:29:45.975Z,84.34
2019-03-28T00:30:45.985Z,84.13
2019-03-28T00:31:47.922Z,83.83
2019-03-28T00:32:45.912Z,83.83
2019-03-28T00:33:45.927Z,84.07
2019-03-28T00:34:45.910Z,84.38
2019-03-28T00:35:45.927Z,84.69
2019-03-28T00:36:45.880Z,84.90
2019-03-28T00:37:45.892Z,85.00
2019-03-28T00:38:45.866Z,85.11
2019-03-28T00:39:45.843Z,85.00
2019-03-28T00:40:45.861Z,84.90
2019-03-28T00:41:45.850Z,85.00
2019-03-28T00:42:45.823Z,84.86
2019-03-28T00:43:45.840Z,84.75
2019-03-28T00:44:45.802Z,84.23
2019-03-28T00:45:45.835Z,83.83
2019-03-28T00:46:46.227Z,83.83
2019-03-28T00:47:45.764Z,83.72
2019-03-28T00:48:45.781Z,83.72
2019-03-28T00:49:45.753Z,83.93
2019-03-28T00:50:45.752Z,83.83
2019-03-28T00:51:45.739Z,84.13
2019-03-28T00:52:45.713Z,84.38
2019-03-28T00:53:45.710Z,84.38
2019-03-28T00:54:46.159Z,84.28
2019-03-28T00:55:45.672Z,84.55
2019-03-28T00:56:47.594Z,84.34
2019-03-28T00:57:45.653Z,84.13
2019-03-28T00:58:45.643Z,83.83
2019-03-28T00:59:45.623Z,83.62
2019-03-28T01:00:45.641Z,83.51
2019-03-28T01:01:45.657Z,83.62
2019-03-28T01:02:46.075Z,83.41
2019-03-28T01:03:45.578Z,83.51
2019-03-28T01:04:45.582Z,83.26
2019-03-28T01:05:45.568Z,82.75
2019-03-28T01:06:45.573Z,83.06
2019-03-28T01:07:45.538Z,83.37
2019-03-28T01:08:45.529Z,82.95
2019-03-28T01:09:45.547Z,82.54
2019-03-28T01:10:45.513Z,83.00
2019-03-28T01:11:45.528Z,83.20
2019-03-28T01:12:45.502Z,82.89
2019-03-28T01:13:45.479Z,82.89
2019-03-28T01:14:45.460Z,82.58
2019-03-28T01:15:45.469Z,82.79
2019-03-28T01:16:45.471Z,83.10
2019-03-28T01:17:45.467Z,83.41
2019-03-28T01:18:45.505Z,83.31
2019-03-28T01:19:45.433Z,83.41
2019-03-28T01:20:45.421Z,83.20
2019-03-28T01:21:45.429Z,83.20
2019-03-28T01:22:45.388Z,83.10
2019-03-28T01:23:46.084Z,83.20
2019-03-28T01:24:45.369Z,83.10
2019-03-28T01:25:45.365Z,82.79
2019-03-28T01:26:56.556Z,82.89
2019-03-28T01:27:46.330Z,83.20
2019-03-28T01:28:45.304Z,83.31
2019-03-28T01:29:45.305Z,83.24
2019-03-28T01:30:45.294Z,83.34
2019-03-28T01:31:45.315Z,83.45
2019-03-28T01:32:45.270Z,83.55
2019-03-28T01:33:45.257Z,83.65
2019-03-28T01:34:45.241Z,83.97
2019-03-28T01:35:45.224Z,83.55
2019-03-28T01:36:45.249Z,83.55
2019-03-28T01:37:45.219Z,83.76
2019-03-28T01:38:45.214Z,84.00
2019-03-28T01:39:45.203Z,83.90
2019-03-28T01:40:45.193Z,84.00
2019-03-28T01:41:45.184Z,84.11
2019-03-28T01:42:45.178Z,83.90
2019-03-28T01:43:45.158Z,83.90
2019-03-28T01:44:45.145Z,84.00
2019-03-28T01:45:45.125Z,84.21
2019-03-28T01:46:45.140Z,84.42
2019-03-28T01:47:45.120Z,84.67
2019-03-28T01:48:45.125Z,84.88
2019-03-28T01:49:45.086Z,84.98
2019-03-28T01:50:45.070Z,85.29
2019-03-28T01:51:45.071Z,85.39
2019-03-28T01:52:45.041Z,85.64
2019-03-28T01:53:45.041Z,85.74
2019-03-28T01:54:45.050Z,85.95
2019-03-28T01:55:45.041Z,86.26
2019-03-28T01:56:45.001Z,86.47
2019-03-28T01:57:45.030Z,86.72
2019-03-28T01:58:44.982Z,86.88
2019-03-28T01:59:44.992Z,86.99
2019-03-28T02:00:44.955Z,86.88
2019-03-28T02:01:44.956Z,86.57
2019-03-28T02:02:45.331Z,86.47
2019-03-28T02:03:44.944Z,86.47
2019-03-28T02:04:44.920Z,86.57
2019-03-28T02:05:44.913Z,86.78
2019-03-28T02:06:44.905Z,86.85
2019-03-28T02:07:44.917Z,86.85
2019-03-28T02:08:44.871Z,86.95
2019-03-28T02:09:44.882Z,86.74
2019-03-28T02:10:44.861Z,86.12
2019-03-28T02:11:44.840Z,85.91
2019-03-28T02:12:44.860Z,86.12
2019-03-28T02:13:44.815Z,85.87
2019-03-28T02:14:44.808Z,85.66
2019-03-28T02:15:44.787Z,85.60
2019-03-28T02:16:44.771Z,85.60
2019-03-28T02:17:44.801Z,85.66
2019-03-28T02:18:44.762Z,85.87
2019-03-28T02:19:45.193Z,85.97
2019-03-28T02:20:44.741Z,85.56
2019-03-28T02:21:44.723Z,85.35
2019-03-28T02:22:45.177Z,85.25
2019-03-28T02:23:44.716Z,85.14
2019-03-28T02:24:44.693Z,85.25
2019-03-28T02:25:44.697Z,85.35
2019-03-28T02:26:44.673Z,85.56
2019-03-28T02:27:44.681Z,85.35
2019-03-28T02:28:44.672Z,85.21
2019-03-28T02:29:44.636Z,85.00
2019-03-28T02:30:44.627Z,84.69
2019-03-28T02:31:44.610Z,84.69
2019-03-28T02:32:44.641Z,84.80
2019-03-28T02:33:44.633Z,84.90
2019-03-28T02:34:48.643Z,85.00
2019-03-28T02:35:44.602Z,85.11
2019-03-28T02:36:44.600Z,85.11
2019-03-28T02:37:44.593Z,85.00
2019-03-28T02:38:44.543Z,85.00
2019-03-28T02:39:44.539Z,85.63
2019-03-28T02:40:44.524Z,85.52
2019-03-28T02:41:44.512Z,85.21
2019-03-28T02:42:44.544Z,85.31
2019-03-28T02:43:45.524Z,85.11
2019-03-28T02:44:44.494Z,85.11
2019-03-28T02:45:44.475Z,85.42
2019-03-28T02:46:44.463Z,85.42
2019-03-28T02:47:44.477Z,85.31
2019-03-28T02:48:44.444Z,85.00
2019-03-28T02:49:45.224Z,84.90
2019-03-28T02:50:44.418Z,84.80
2019-03-28T02:51:44.400Z,84.90
2019-03-28T02:52:44.420Z,85.21
2019-03-28T02:53:44.385Z,85.00
2019-03-28T02:54:44.369Z,85.00
2019-03-28T02:55:44.371Z,85.00
2019-03-28T02:56:44.360Z,85.21
2019-03-28T02:57:44.381Z,85.31
2019-03-28T02:58:44.338Z,85.38
2019-03-28T02:59:44.333Z,85.27
2019-03-28T03:00:44.313Z,85.06
2019-03-28T03:01:44.307Z,84.96
2019-03-28T03:02:44.309Z,84.96
2019-03-28T03:03:44.311Z,84.96
2019-03-28T03:04:44.278Z,85.06
2019-03-28T03:05:44.256Z,85.27
2019-03-28T03:06:44.245Z,85.27
2019-03-28T03:07:44.235Z,85.58
2019-03-28T03:08:44.248Z,85.48
2019-03-28T03:09:44.217Z,85.58
2019-03-28T03:10:44.287Z,85.79
2019-03-28T03:11:44.209Z,86.00
2019-03-28T03:12:44.181Z,85.38
2019-03-28T03:13:44.265Z,85.38
2019-03-28T03:14:44.185Z,85.38
2019-03-28T03:15:44.141Z,85.58
2019-03-28T03:16:44.144Z,85.79
2019-03-28T03:17:44.125Z,85.69
2019-03-28T03:18:44.258Z,85.58
2019-03-28T03:19:44.101Z,85.79
2019-03-28T03:20:44.108Z,85.75
2019-03-28T03:21:44.091Z,85.34
2019-03-28T03:22:44.082Z,85.86
2019-03-28T03:23:44.080Z,85.44
2019-03-28T03:24:44.030Z,85.44
2019-03-28T03:25:44.057Z,85.34
2019-03-28T03:26:44.023Z,85.34
2019-03-28T03:27:56.861Z,85.24
2019-03-28T03:28:45.040Z,85.44
2019-03-28T03:29:43.996Z,85.44
2019-03-28T03:30:43.979Z,85.44
2019-03-28T03:31:43.970Z,85.34
2019-03-28T03:32:43.967Z,85.13
2019-03-28T03:33:43.995Z,85.13
2019-03-28T03:34:43.937Z,85.24
2019-03-28T03:35:43.930Z,85.03
2019-03-28T03:36:43.930Z,85.03
2019-03-28T03:37:43.898Z,85.24
2019-03-28T03:38:43.927Z,85.40
2019-03-28T03:39:43.891Z,85.50
2019-03-28T03:40:43.875Z,85.40
2019-03-28T03:41:44.788Z,85.50
2019-03-28T03:42:43.861Z,85.40
2019-03-28T03:43:43.863Z,85.50
2019-03-28T03:44:43.832Z,85.30
2019-03-28T03:45:43.803Z,85.30
2019-03-28T03:46:43.811Z,85.19
2019-03-28T03:47:43.792Z,85.19
2019-03-28T03:48:43.808Z,85.30
2019-03-28T03:49:43.797Z,85.40
2019-03-28T03:50:43.756Z,85.40
2019-03-28T03:51:46.483Z,85.82
2019-03-28T03:52:43.753Z,85.50
2019-03-28T03:53:43.748Z,85.57
2019-03-28T03:54:43.738Z,85.47
2019-03-28T03:55:43.698Z,85.16
2019-03-28T03:56:43.708Z,85.26
2019-03-28T03:57:43.728Z,85.16
2019-03-28T03:58:43.721Z,84.95
2019-03-28T03:59:43.673Z,85.05
2019-03-28T04:00:43.687Z,85.47
2019-03-28T04:01:44.517Z,85.16
2019-03-28T04:02:43.625Z,85.16
2019-03-28T04:03:43.645Z,85.26
2019-03-28T04:04:43.628Z,85.57
2019-03-28T04:05:43.620Z,85.57
2019-03-28T04:06:43.630Z,86.09
2019-03-28T04:07:43.584Z,85.78
2019-03-28T04:08:43.605Z,85.36
2019-03-28T04:09:43.573Z,85.36
2019-03-28T04:10:43.569Z,85.78
2019-03-28T04:11:43.544Z,85.68
2019-03-28T04:12:43.535Z,85.32
2019-03-28T04:13:43.554Z,85.11
2019-03-28T04:14:43.518Z,85.02
2019-03-28T04:15:43.510Z,85.02
2019-03-28T04:16:43.488Z,85.42
2019-03-28T04:17:43.496Z,85.53
2019-03-28T04:18:43.575Z,85.02
2019-03-28T04:19:43.477Z,84.87
2019-03-28T04:20:43.454Z,84.97
2019-03-28T04:21:43.799Z,84.87
2019-03-28T04:22:43.445Z,84.66
2019-03-28T04:23:43.424Z,84.45
2019-03-28T04:24:43.425Z,84.15
2019-03-28T04:25:43.404Z,83.94
2019-03-28T04:26:43.380Z,84.05
2019-03-28T04:27:43.370Z,83.18
2019-03-28T04:28:43.369Z,82.97
2019-03-28T04:29:43.376Z,82.87
2019-03-28T04:30:43.339Z,82.66
2019-03-28T04:31:43.330Z,82.66
2019-03-28T04:32:43.313Z,82.10
2019-03-28T04:33:43.300Z,82.00
2019-03-28T04:34:43.336Z,82.21
2019-03-28T04:35:43.289Z,82.10
2019-03-28T04:36:43.290Z,82.10
2019-03-28T04:37:43.281Z,82.52
2019-03-28T04:38:43.247Z,82.52
2019-03-28T04:39:43.262Z,82.52
2019-03-28T04:40:43.225Z,82.93
2019-03-28T04:41:43.217Z,82.62
2019-03-28T04:42:45.844Z,82.42
2019-03-28T04:43:43.216Z,83.04
2019-03-28T04:44:43.195Z,83.55
2019-03-28T04:45:43.171Z,83.39
2019-03-28T04:46:43.184Z,83.28
2019-03-28T04:47:43.147Z,83.90
2019-03-28T04:48:43.142Z,83.70
2019-03-28T04:49:43.221Z,84.11
2019-03-28T04:50:43.142Z,84.21
2019-03-28T04:51:43.105Z,84.21
2019-03-28T04:52:43.096Z,84.05
2019-03-28T04:53:43.112Z,84.05
2019-03-28T04:54:43.102Z,84.05
2019-03-28T04:55:43.087Z,84.15
2019-03-28T04:56:43.061Z,84.36
2019-03-28T04:57:43.046Z,84.77
2019-03-28T04:58:44.696Z,84.45
2019-03-28T04:59:43.072Z,84.36
2019-03-28T05:00:43.010Z,84.77
2019-03-28T05:01:43.000Z,84.56
2019-03-28T05:02:45.907Z,84.56
2019-03-28T05:03:43.011Z,84.36
2019-03-28T05:04:43.011Z,84.25
2019-03-28T05:05:42.962Z,84.36
2019-03-28T05:06:42.960Z,84.45
2019-03-28T05:07:42.952Z,84.66
2019-03-28T05:08:42.952Z,84.77
2019-03-28T05:09:42.941Z,84.66
2019-03-28T05:10:42.916Z,84.56
2019-03-28T05:11:42.897Z,84.66
2019-03-28T05:12:42.907Z,84.56
2019-03-28T05:13:42.873Z,84.45
2019-03-28T05:14:42.882Z,84.45
2019-03-28T05:15:42.852Z,84.56
2019-03-28T05:16:42.846Z,84.97
2019-03-28T05:17:42.834Z,85.28
2019-03-28T05:18:42.816Z,85.28
2019-03-28T05:19:42.859Z,85.39
2019-03-28T05:20:42.781Z,85.18
2019-03-28T05:21:42.789Z,85.08
2019-03-28T05:22:42.797Z,85.08
2019-03-28T05:23:42.769Z,84.77
2019-03-28T05:24:42.753Z,85.18
2019-03-28T05:25:42.777Z,85.60
2019-03-28T05:26:42.727Z,85.70
2019-03-28T05:27:42.729Z,85.60
2019-03-28T05:28:42.707Z,85.80
2019-03-28T05:29:42.701Z,85.80
2019-03-28T05:30:43.251Z,85.49
2019-03-28T05:31:42.707Z,85.45
2019-03-28T05:32:42.679Z,85.35
2019-03-28T05:33:42.670Z,85.55
2019-03-28T05:34:42.650Z,85.45
2019-03-28T05:35:42.670Z,85.66
2019-03-28T05:36:42.619Z,85.55
2019-03-28T05:37:42.630Z,85.21
2019-03-28T05:38:42.600Z,84.69
2019-03-28T05:39:42.578Z,84.69
2019-03-28T05:40:42.623Z,84.07
2019-03-28T05:41:42.575Z,84.07
2019-03-28T05:42:42.563Z,83.55
2019-03-28T05:43:45.356Z,83.76
2019-03-28T05:44:42.553Z,83.65
2019-03-28T05:45:42.552Z,83.65
2019-03-28T05:46:42.535Z,83.97
2019-03-28T05:47:42.498Z,83.86
2019-03-28T05:48:42.507Z,84.17
2019-03-28T05:49:42.488Z,84.48
2019-03-28T05:50:42.486Z,84.69
2019-03-28T05:51:42.479Z,84.23
2019-03-28T05:52:42.469Z,83.51
2019-03-28T05:53:43.972Z,83.72
2019-03-28T05:54:42.440Z,84.23
2019-03-28T05:55:42.461Z,84.23
2019-03-28T05:56:42.407Z,83.62
2019-03-28T05:57:42.404Z,83.20
2019-03-28T05:58:42.384Z,83.00
2019-03-28T05:59:42.384Z,83.10
2019-03-28T06:00:42.414Z,83.83
2019-03-28T06:01:42.355Z,83.31
2019-03-28T06:02:42.346Z,83.00
2019-03-28T06:03:42.476Z,83.27
2019-03-28T06:04:42.340Z,83.58
2019-03-28T06:05:42.340Z,83.17
2019-03-28T06:06:42.299Z,83.27
2019-03-28T06:07:42.286Z,83.27
2019-03-28T06:08:42.309Z,83.27
2019-03-28T06:09:42.291Z,83.37
2019-03-28T06:10:42.285Z,83.48
2019-03-28T06:11:42.247Z,83.48
2019-03-28T06:12:42.245Z,83.17
2019-03-28T06:13:42.241Z,82.96
2019-03-28T06:14:42.222Z,83.58
2019-03-28T06:15:42.257Z,83.58
2019-03-28T06:16:42.202Z,83.03
2019-03-28T06:17:42.205Z,83.03
2019-03-28T06:18:42.201Z,82.82
2019-03-28T06:19:42.170Z,82.92
2019-03-28T06:20:42.180Z,83.03
2019-03-28T06:21:42.130Z,82.10
2019-03-28T06:22:42.140Z,82.06
2019-03-28T06:23:42.121Z,81.96
2019-03-28T06:24:42.096Z,82.16
2019-03-28T06:25:42.151Z,81.44
2019-03-28T06:26:42.085Z,80.72
2019-03-28T06:27:42.067Z,80.58
2019-03-28T06:28:42.103Z,80.68
2019-03-28T06:29:42.068Z,80.58
2019-03-28T06:30:42.057Z,79.75
2019-03-28T06:31:54.315Z,79.75
2019-03-28T06:32:43.647Z,79.61
2019-03-28T06:33:42.015Z,79.82
2019-03-28T06:34:42.475Z,79.93
2019-03-28T06:35:42.052Z,79.51
2019-03-28T06:36:41.979Z,80.02
2019-03-28T06:37:41.977Z,78.89
2019-03-28T06:38:41.947Z,80.13
2019-03-28T06:39:41.962Z,80.54
2019-03-28T06:40:41.983Z,79.68
2019-03-28T06:41:44.249Z,79.27
2019-03-28T06:42:41.953Z,79.58
2019-03-28T06:43:42.260Z,80.57
2019-03-28T06:44:41.892Z,79.85
2019-03-28T06:45:41.991Z,78.61
2019-03-28T06:46:41.883Z,78.06
2019-03-28T06:47:41.864Z,78.68
2019-03-28T06:48:41.855Z,78.13
2019-03-28T06:49:41.843Z,77.92
2019-03-28T06:50:41.904Z,77.20
2019-03-28T06:51:41.867Z,77.82
2019-03-28T06:52:41.793Z,78.30
2019-03-28T06:53:41.807Z,77.78
2019-03-28T06:54:41.811Z,78.71
2019-03-28T06:55:41.799Z,76.65
2019-03-28T06:56:41.768Z,75.01
2019-03-28T06:57:41.757Z,75.90
2019-03-28T06:58:41.743Z,76.10
2019-03-28T06:59:41.724Z,77.55
2019-03-28T07:00:41.746Z,75.80
2019-03-28T07:01:41.726Z,75.49
2019-03-28T07:02:41.685Z,75.90
2019-03-28T07:03:41.677Z,76.58
2019-03-28T07:04:41.693Z,75.25
2019-03-28T07:05:41.700Z,74.84
2019-03-28T07:06:41.663Z,74.22
2019-03-28T07:07:41.637Z,75.15
2019-03-28T07:08:41.629Z,76.58
2019-03-28T07:09:41.623Z,75.15
2019-03-28T07:10:41.638Z,74.91
2019-03-28T07:11:41.603Z,74.70
2019-03-28T07:12:41.600Z,75.69
2019-03-28T07:13:41.598Z,75.59
2019-03-28T07:14:41.579Z,75.76
2019-03-28T07:15:41.599Z,73.30
2019-03-28T07:16:41.566Z,73.16
2019-03-28T07:17:41.559Z,71.42
2019-03-28T07:18:41.533Z,72.24
2019-03-28T07:19:41.499Z,71.69
2019-03-28T07:20:41.498Z,73.33
2019-03-28T07:21:41.534Z,73.85
2019-03-28T07:22:41.474Z,71.86
2019-03-28T07:23:41.464Z,71.36
2019-03-28T07:24:41.485Z,70.33
2019-03-28T07:25:41.454Z,69.89
2019-03-28T07:26:41.460Z,69.68
2019-03-28T07:27:41.459Z,69.48
2019-03-28T07:28:41.413Z,68.73
2019-03-28T07:29:50.638Z,68.93
2019-03-28T07:30:42.380Z,69.52
2019-03-28T07:31:41.415Z,67.88
2019-03-28T07:32:43.444Z,67.37
2019-03-28T07:33:41.366Z,68.19
2019-03-28T07:34:41.361Z,67.98
2019-03-28T07:35:41.375Z,67.78
2019-03-28T07:36:41.371Z,67.19
2019-03-28T07:37:41.325Z,69.14
2019-03-28T07:38:41.328Z,68.93
2019-03-28T07:39:41.310Z,67.50
2019-03-28T07:40:41.270Z,67.30
2019-03-28T07:41:41.299Z,69.24
2019-03-28T07:42:41.286Z,68.84
2019-03-28T07:43:41.266Z,68.12
2019-03-28T07:44:41.255Z,69.31
2019-03-28T07:45:41.254Z,68.49
2019-03-28T07:46:41.238Z,68.97
2019-03-28T07:47:41.223Z,67.54
2019-03-28T07:48:41.191Z,67.51
2019-03-28T07:49:41.196Z,66.69
2019-03-28T07:50:42.548Z,67.96
2019-03-28T07:51:41.197Z,66.60
2019-03-28T07:52:41.146Z,64.32
2019-03-28T07:53:41.138Z,63.44
2019-03-28T07:54:41.164Z,62.49
2019-03-28T07:55:41.111Z,64.02
2019-03-28T07:56:41.151Z,63.71
2019-03-28T07:57:41.489Z,65.01
2019-03-28T07:58:44.071Z,63.15
2019-03-28T07:59:44.014Z,63.68
2019-03-28T08:00:41.096Z,65.22
2019-03-28T08:01:41.080Z,63.45
2019-03-28T08:02:41.415Z,66.41
2019-03-28T08:03:41.047Z,63.56
2019-03-28T08:04:41.167Z,63.04
2019-03-28T08:05:41.028Z,62.54
2019-03-28T08:06:49.633Z,62.02
2019-03-28T08:07:45.331Z,61.31
2019-03-28T08:08:44.075Z,63.42
2019-03-28T08:09:41.008Z,61.76
2019-03-28T08:10:40.973Z,61.15
2019-03-28T08:11:40.973Z,61.46
2019-03-28T08:12:41.002Z,62.14
2019-03-28T08:13:40.969Z,59.30
2019-03-28T08:14:40.932Z,61.65
2019-03-28T08:15:40.911Z,60.14
2019-03-28T08:16:40.906Z,56.16
2019-03-28T08:17:40.883Z,55.47
2019-03-28T08:18:40.888Z,55.91
2019-03-28T08:19:41.709Z,57.91
2019-03-28T08:20:40.831Z,55.45
2019-03-28T08:21:40.858Z,55.35
2019-03-28T08:22:40.847Z,57.07
2019-03-28T08:23:40.815Z,54.53
2019-03-28T08:24:40.810Z,56.70
2019-03-28T08:25:41.578Z,55.58
2019-03-28T08:26:40.774Z,55.22
2019-03-28T08:27:40.810Z,54.00
2019-03-28T08:28:40.752Z,52.97
2019-03-28T08:29:40.728Z,54.28
2019-03-28T08:30:40.743Z,55.43
2019-03-28T08:31:40.918Z,55.25
2019-03-28T08:32:40.726Z,56.54
2019-03-28T08:33:40.694Z,54.64
2019-03-28T08:34:40.699Z,54.24
2019-03-28T08:35:40.670Z,54.57
2019-03-28T08:36:40.667Z,56.31
2019-03-28T08:37:40.674Z,56.57
2019-03-28T08:38:40.647Z,57.95
2019-03-28T08:39:40.668Z,59.06
2019-03-28T08:40:40.660Z,59.37
2019-03-28T08:41:40.646Z,60.08
2019-03-28T08:42:40.637Z,60.66
2019-03-28T08:43:40.604Z,58.83
2019-03-28T08:44:40.654Z,58.15
2019-03-28T08:45:40.588Z,59.03
2019-03-28T08:46:40.651Z,59.11
2019-03-28T08:47:40.754Z,58.17
2019-03-28T08:48:40.589Z,58.54
2019-03-28T08:49:40.701Z,56.87
2019-03-28T08:50:40.885Z,56.23
2019-03-28T08:51:40.589Z,55.93
2019-03-28T08:52:40.757Z,55.22
2019-03-28T08:53:40.620Z,55.12
2019-03-28T08:54:40.480Z,55.80
2019-03-28T08:55:40.471Z,54.05
2019-03-28T08:56:40.483Z,53.83
2019-03-28T08:57:40.484Z,53.09
2019-03-28T08:58:40.457Z,52.19
2019-03-28T08:59:40.439Z,51.90
2019-03-28T09:00:51.583Z,52.21
2019-03-28T09:01:41.401Z,52.54
2019-03-28T09:02:40.497Z,51.28
2019-03-28T09:03:40.397Z,50.93
2019-03-28T09:04:40.397Z,48.08
2019-03-28T09:05:40.430Z,49.59
2019-03-28T09:06:40.337Z,46.68
2019-03-28T09:07:40.382Z,48.63
2019-03-28T09:08:40.348Z,44.87
2019-03-28T09:09:40.323Z,42.86
2019-03-28T09:10:40.295Z,46.80
2019-03-28T09:11:40.315Z,43.08
2019-03-28T09:12:40.316Z,44.12
2019-03-28T09:13:40.282Z,43.95
2019-03-28T09:14:40.267Z,46.68
2019-03-28T09:15:44.098Z,44.73
2019-03-28T09:16:40.304Z,49.01
2019-03-28T09:17:40.255Z,49.13
2019-03-28T09:18:40.256Z,48.68
2019-03-28T09:19:40.221Z,50.59
2019-03-28T09:20:40.405Z,53.98
2019-03-28T09:21:40.204Z,52.79
2019-03-28T09:22:40.243Z,55.76
2019-03-28T09:23:40.196Z,54.74
2019-03-28T09:24:40.158Z,57.15
2019-03-28T09:25:40.169Z,54.41
2019-03-28T09:26:40.157Z,55.12
2019-03-28T09:27:40.150Z,54.71
2019-03-28T09:28:40.147Z,53.50
2019-03-28T09:29:40.097Z,55.25
2019-03-28T09:30:48.148Z,54.97
2019-03-28T09:31:41.334Z,54.66
2019-03-28T09:32:40.076Z,55.60
2019-03-28T09:33:40.796Z,56.21
2019-03-28T09:34:40.066Z,56.31
2019-03-28T09:35:40.146Z,56.47
2019-03-28T09:36:40.031Z,56.90
2019-03-28T09:37:40.464Z,57.74
2019-03-28T09:38:40.301Z,58.56
2019-03-28T09:39:39.988Z,58.56
2019-03-28T09:40:40.011Z,58.07
2019-03-28T09:41:39.996Z,58.48
2019-03-28T09:42:39.973Z,59.22
2019-03-28T09:43:54.185Z,59.48
2019-03-28T09:44:40.992Z,61.21
2019-03-28T09:45:39.982Z,61.14
2019-03-28T09:46:39.908Z,61.82
2019-03-28T09:47:39.930Z,61.61
2019-03-28T09:48:39.945Z,60.63
2019-03-28T09:49:39.899Z,62.26
2019-03-28T09:50:40.044Z,62.02
2019-03-28T09:51:39.906Z,62.02
2019-03-28T09:52:39.880Z,61.21
2019-03-28T09:53:39.898Z,62.13
2019-03-28T09:54:39.888Z,62.16
2019-03-28T09:55:39.838Z,62.26
2019-03-28T09:56:39.852Z,62.63
2019-03-28T09:57:39.837Z,62.23
2019-03-28T09:58:39.849Z,61.72
2019-03-28T09:59:39.844Z,63.76
2019-03-28T10:00:39.802Z,61.85
2019-03-28T10:01:39.836Z,62.87
2019-03-28T10:02:39.758Z,63.00
2019-03-28T10:03:39.937Z,63.92
2019-03-28T10:04:39.762Z,64.46
2019-03-28T10:05:39.743Z,64.87
2019-03-28T10:06:39.713Z,64.66
2019-03-28T10:07:39.716Z,66.80
2019-03-28T10:08:39.712Z,64.46
2019-03-28T10:09:39.925Z,65.07
2019-03-28T10:10:39.674Z,65.17
2019-03-28T10:11:39.657Z,65.68
2019-03-28T10:12:39.638Z,64.87
2019-03-28T10:13:39.676Z,65.28
2019-03-28T10:14:39.632Z,64.63
2019-03-28T10:15:39.617Z,64.53
2019-03-28T10:16:40.438Z,64.87
2019-03-28T10:17:42.358Z,64.36
2019-03-28T10:18:39.610Z,66.05
2019-03-28T10:19:39.568Z,66.33
2019-03-28T10:20:39.543Z,66.02
2019-03-28T10:21:39.534Z,65.92
2019-03-28T10:22:39.818Z,65.61
2019-03-28T10:23:39.968Z,66.09
2019-03-28T10:24:39.510Z,64.59
2019-03-28T10:25:40.560Z,65.37
2019-03-28T10:26:39.704Z,67.11
2019-03-28T10:27:39.479Z,66.30
2019-03-28T10:28:39.500Z,67.52
2019-03-28T10:29:39.469Z,65.65
2019-03-28T10:30:39.446Z,65.04
2019-03-28T10:31:39.435Z,65.17
2019-03-28T10:32:39.431Z,65.14
2019-03-28T10:33:39.433Z,65.37
2019-03-28T10:34:39.393Z,65.78
2019-03-28T10:35:39.409Z,64.56
2019-03-28T10:36:39.374Z,64.76
2019-03-28T10:37:39.366Z,65.17
2019-03-28T10:38:39.379Z,65.92
2019-03-28T10:39:39.380Z,66.02
2019-03-28T10:40:39.335Z,65.28
2019-03-28T10:41:39.981Z,65.37
2019-03-28T10:42:39.317Z,65.51
2019-03-28T10:43:39.309Z,66.33
2019-03-28T10:44:39.344Z,65.89
2019-03-28T10:45:39.292Z,65.58
2019-03-28T10:46:39.292Z,65.68
2019-03-28T10:47:39.280Z,64.22
2019-03-28T10:48:39.276Z,63.92
2019-03-28T10:49:39.240Z,64.70
2019-03-28T10:50:45.066Z,63.18
2019-03-28T10:51:40.215Z,62.97
2019-03-28T10:52:39.222Z,62.16
2019-03-28T10:53:39.216Z,61.93
2019-03-28T10:54:39.185Z,61.82
2019-03-28T10:55:39.188Z,61.90
2019-03-28T10:56:51.134Z,61.69
2019-03-28T10:57:40.147Z,61.97
2019-03-28T10:58:39.242Z,60.31
2019-03-28T10:59:39.145Z,60.82
2019-03-28T11:00:39.125Z,61.15
2019-03-28T11:01:49.121Z,61.33
2019-03-28T11:02:40.103Z,59.77
2019-03-28T11:03:39.129Z,59.37
2019-03-28T11:04:39.063Z,59.95
2019-03-28T11:05:39.088Z,60.05
2019-03-28T11:06:39.046Z,59.44
2019-03-28T11:07:39.054Z,60.36
2019-03-28T11:08:39.084Z,60.36
2019-03-28T11:09:39.023Z,59.01
2019-03-28T11:10:39.002Z,60.30
2019-03-28T11:11:39.027Z,59.26
2019-03-28T11:12:39.007Z,58.47
2019-03-28T11:13:39.006Z,58.17
2019-03-28T11:14:39.013Z,58.67
2019-03-28T11:15:38.958Z,58.27
2019-03-28T11:16:38.968Z,58.58
2019-03-28T11:17:38.930Z,59.39
2019-03-28T11:18:39.674Z,57.33
2019-03-28T11:19:38.923Z,57.12
2019-03-28T11:20:40.115Z,58.24
2019-03-28T11:21:38.916Z,58.22
2019-03-28T11:22:38.866Z,56.90
2019-03-28T11:23:38.876Z,58.31
2019-03-28T11:24:38.854Z,57.88
2019-03-28T11:25:38.854Z,55.78
2019-03-28T11:26:38.822Z,56.70
2019-03-28T11:27:38.829Z,54.84
2019-03-28T11:28:39.017Z,54.74
2019-03-28T11:29:38.783Z,54.33
2019-03-28T11:30:38.834Z,54.59
2019-03-28T11:31:46.249Z,54.59
2019-03-28T11:32:39.770Z,55.91
2019-03-28T11:33:38.819Z,56.72
2019-03-28T11:34:38.753Z,55.98
2019-03-28T11:35:38.741Z,55.35
2019-03-28T11:36:38.733Z,54.41
2019-03-28T11:37:38.754Z,52.86
2019-03-28T11:38:38.750Z,54.61
2019-03-28T11:39:39.034Z,52.28
2019-03-28T11:40:39.348Z,53.22
2019-03-28T11:41:38.690Z,54.94
2019-03-28T11:42:38.684Z,55.07
2019-03-28T11:43:38.683Z,53.42
2019-03-28T11:44:38.749Z,53.12
2019-03-28T11:45:38.630Z,54.44
2019-03-28T11:46:38.668Z,53.80
2019-03-28T11:47:38.803Z,52.08
2019-03-28T11:48:38.610Z,51.55
2019-03-28T11:49:38.604Z,50.54
2019-03-28T11:50:38.575Z,51.12
2019-03-28T11:51:38.562Z,51.02
2019-03-28T11:52:38.635Z,54.84
2019-03-28T11:53:38.545Z,52.16
2019-03-28T11:54:38.571Z,52.11
2019-03-28T11:55:38.527Z,46.73
2019-03-28T11:56:38.529Z,49.84
2019-03-28T11:57:38.831Z,45.40
2019-03-28T11:58:38.756Z,45.54
2019-03-28T11:59:38.524Z,45.99
2019-03-28T12:00:38.490Z,46.40
2019-03-28T12:01:38.456Z,47.31
2019-03-28T12:02:38.440Z,48.82
2019-03-28T12:03:38.438Z,47.23
2019-03-28T12:04:38.798Z,50.09
2019-03-28T12:05:38.418Z,51.88
2019-03-28T12:06:38.410Z,49.84
2019-03-28T12:07:38.416Z,49.51
2019-03-28T12:08:38.371Z,49.01
2019-03-28T12:09:38.408Z,47.89
2019-03-28T12:10:38.900Z,47.79
2019-03-28T12:11:38.356Z,46.80
2019-03-28T12:12:38.337Z,48.02
2019-03-28T12:13:44.660Z,47.83
2019-03-28T12:14:39.335Z,47.78
2019-03-28T12:15:38.320Z,49.22
2019-03-28T12:16:38.354Z,49.44
2019-03-28T12:17:38.282Z,50.15
2019-03-28T12:18:38.295Z,50.84
2019-03-28T12:19:38.300Z,50.03
2019-03-28T12:20:38.273Z,48.99
2019-03-28T12:21:38.309Z,48.59
2019-03-28T12:22:38.236Z,49.11
2019-03-28T12:23:38.216Z,49.57
2019-03-28T12:24:38.295Z,49.80
2019-03-28T12:25:38.211Z,49.92
2019-03-28T12:26:38.199Z,52.36
2019-03-28T12:27:38.213Z,50.10
2019-03-28T12:28:38.151Z,49.27
2019-03-28T12:29:38.224Z,48.94
2019-03-28T12:30:38.137Z,49.16
2019-03-28T12:31:38.158Z,50.28
2019-03-28T12:32:38.157Z,50.68
2019-03-28T12:33:38.090Z,50.96
2019-03-28T12:34:38.161Z,49.87
2019-03-28T12:35:38.085Z,50.68
2019-03-28T12:36:38.102Z,50.99
2019-03-28T12:37:38.067Z,51.01
2019-03-28T12:38:38.075Z,51.62
2019-03-28T12:39:38.112Z,52.94
2019-03-28T12:40:38.069Z,51.54
2019-03-28T12:41:38.060Z,51.65
2019-03-28T12:42:38.045Z,52.33
2019-03-28T12:43:38.294Z,53.04
2019-03-28T12:44:38.111Z,51.42
2019-03-28T12:45:38.033Z,50.99
2019-03-28T12:46:38.009Z,51.67
2019-03-28T12:47:42.812Z,50.94
2019-03-28T12:48:38.967Z,50.63
2019-03-28T12:49:37.958Z,49.19
2019-03-28T12:50:37.947Z,50.38
2019-03-28T12:51:37.939Z,49.30
2019-03-28T12:52:37.921Z,49.68